createdAt,value
2023-02-25T00:00:28.827Z,98.24
2023-02-25T00:01:28.836Z,98.03
2023-02-25T00:02:28.877Z,98.14
2023-02-25T00:03:28.817Z,98.24
2023-02-25T00:04:28.781Z,97.88
2023-02-25T00:05:31.140Z,97.88
2023-02-25T00:06:28.755Z,98.19
2023-02-25T00:07:28.750Z,98.08
2023-02-25T00:08:28.745Z,98.29
2023-02-25T00:09:28.764Z,97.52
2023-02-25T00:10:28.700Z,97.52
2023-02-25T00:11:28.701Z,97.56
2023-02-25T00:12:28.679Z,97.35
2023-02-25T00:13:28.678Z,97.77
2023-02-25T00:14:28.820Z,97.45
2023-02-25T00:15:28.683Z,97.25
2023-02-25T00:16:28.731Z,97.04
2023-02-25T00:17:28.636Z,97.00
2023-02-25T00:18:28.634Z,97.10
2023-02-25T00:19:28.603Z,97.25
2023-02-25T00:20:28.624Z,97.25
2023-02-25T00:21:28.614Z,97.35
2023-02-25T00:22:28.567Z,97.20
2023-02-25T00:23:37.160Z,96.69
2023-02-25T00:24:28.561Z,96.79
2023-02-25T00:25:28.547Z,96.89
2023-02-25T00:26:28.565Z,97.10
2023-02-25T00:27:28.535Z,97.00
2023-02-25T00:28:28.526Z,96.17
2023-02-25T00:29:28.494Z,96.48
2023-02-25T00:30:28.487Z,96.17
2023-02-25T00:31:28.618Z,96.27
2023-02-25T00:32:28.592Z,96.37
2023-02-25T00:33:28.444Z,96.37
2023-02-25T00:34:28.443Z,96.58
2023-02-25T00:35:28.424Z,96.58
2023-02-25T00:36:28.442Z,96.17
2023-02-25T00:37:28.400Z,95.96
2023-02-25T00:38:28.395Z,95.96
2023-02-25T00:39:28.473Z,96.17
2023-02-25T00:40:28.368Z,95.86
2023-02-25T00:41:28.379Z,95.75
2023-02-25T00:42:28.380Z,95.75
2023-02-25T00:43:28.380Z,95.54
2023-02-25T00:44:28.340Z,94.61
2023-02-25T00:45:28.341Z,94.92
2023-02-25T00:46:28.407Z,94.82
2023-02-25T00:47:28.343Z,94.98
2023-02-25T00:48:28.313Z,95.03
2023-02-25T00:49:32.559Z,95.65
2023-02-25T00:50:28.273Z,95.03
2023-02-25T00:51:28.278Z,95.34
2023-02-25T00:52:28.261Z,95.23
2023-02-25T00:53:28.251Z,94.92
2023-02-25T00:54:28.266Z,94.71
2023-02-25T00:55:28.216Z,94.92
2023-02-25T00:56:28.217Z,94.92
2023-02-25T00:57:28.204Z,95.23
2023-02-25T00:58:28.165Z,94.71
2023-02-25T00:59:28.159Z,94.92
2023-02-25T01:00:28.177Z,94.92
2023-02-25T01:01:28.223Z,94.82
2023-02-25T01:02:28.167Z,95.03
2023-02-25T01:03:28.109Z,95.03
2023-02-25T01:04:28.099Z,94.82
2023-02-25T01:05:28.113Z,94.82
2023-02-25T01:06:28.076Z,94.71
2023-02-25T01:07:28.080Z,94.51
2023-02-25T01:08:28.074Z,94.82
2023-02-25T01:09:28.041Z,94.61
2023-02-25T01:10:28.061Z,94.20
2023-02-25T01:11:28.036Z,94.46
2023-02-25T01:12:28.010Z,94.26
2023-02-25T01:13:28.002Z,93.84
2023-02-25T01:14:27.985Z,93.57
2023-02-25T01:15:27.987Z,93.95
2023-02-25T01:16:28.061Z,93.95
2023-02-25T01:17:27.952Z,94.36
2023-02-25T01:18:27.947Z,94.05
2023-02-25T01:19:27.957Z,94.46
2023-02-25T01:20:27.924Z,94.05
2023-02-25T01:21:27.930Z,94.36
2023-02-25T01:22:27.898Z,94.26
2023-02-25T01:23:27.922Z,94.05
2023-02-25T01:24:27.873Z,94.05
2023-02-25T01:25:27.868Z,94.26
2023-02-25T01:26:27.877Z,94.15
2023-02-25T01:27:27.878Z,94.36
2023-02-25T01:28:27.870Z,93.95
2023-02-25T01:29:27.816Z,93.63
2023-02-25T01:30:27.804Z,94.09
2023-02-25T01:31:27.931Z,94.26
2023-02-25T01:32:27.952Z,94.05
2023-02-25T01:33:27.776Z,94.26
2023-02-25T01:34:27.788Z,94.15
2023-02-25T01:35:27.756Z,94.40
2023-02-25T01:36:27.762Z,94.46
2023-02-25T01:37:27.767Z,94.15
2023-02-25T01:38:27.732Z,94.15
2023-02-25T01:39:27.748Z,94.15
2023-02-25T01:40:27.699Z,94.40
2023-02-25T01:41:27.684Z,93.95
2023-02-25T01:42:27.694Z,94.05
2023-02-25T01:43:27.679Z,94.09
2023-02-25T01:44:27.651Z,94.36
2023-02-25T01:45:27.644Z,94.57
2023-02-25T01:46:27.672Z,94.51
2023-02-25T01:47:27.658Z,94.20
2023-02-25T01:48:27.614Z,94.05
2023-02-25T01:49:27.608Z,94.40
2023-02-25T01:50:27.615Z,94.36
2023-02-25T01:51:27.583Z,94.30
2023-02-25T01:52:27.594Z,94.36
2023-02-25T01:53:27.577Z,94.05
2023-02-25T01:54:27.556Z,94.15
2023-02-25T01:55:27.538Z,94.09
2023-02-25T01:56:27.534Z,94.40
2023-02-25T01:57:27.526Z,94.20
2023-02-25T01:58:27.499Z,94.30
2023-02-25T01:59:27.508Z,94.09
2023-02-25T02:00:27.508Z,94.92
2023-02-25T02:01:27.467Z,94.82
2023-02-25T02:02:27.616Z,94.78
2023-02-25T02:03:27.466Z,94.26
2023-02-25T02:04:27.581Z,94.26
2023-02-25T02:05:27.455Z,94.20
2023-02-25T02:06:27.442Z,94.20
2023-02-25T02:08:38.647Z,94.67
2023-02-25T02:09:38.605Z,94.82
2023-02-25T02:10:38.636Z,95.44
2023-02-25T02:11:38.597Z,95.13
2023-02-25T02:12:38.583Z,94.92
2023-02-25T02:13:38.562Z,94.82
2023-02-25T02:14:38.601Z,94.92
2023-02-25T02:15:38.546Z,95.34
2023-02-25T02:16:38.604Z,95.13
2023-02-25T02:17:38.533Z,95.13
2023-02-25T02:18:38.517Z,94.82
2023-02-25T02:19:38.503Z,94.71
2023-02-25T02:20:38.507Z,95.03
2023-02-25T02:21:38.470Z,94.82
2023-02-25T02:22:38.496Z,94.82
2023-02-25T02:23:38.486Z,94.51
2023-02-25T02:24:38.447Z,94.15
2023-02-25T02:25:38.465Z,94.51
2023-02-25T02:26:38.430Z,93.95
2023-02-25T02:27:38.408Z,94.46
2023-02-25T02:28:38.426Z,94.20
2023-02-25T02:29:38.391Z,93.84
2023-02-25T02:30:38.506Z,93.74
2023-02-25T02:31:38.488Z,93.63
2023-02-25T02:32:38.477Z,94.15
2023-02-25T02:33:38.350Z,93.84
2023-02-25T02:34:38.344Z,93.84
2023-02-25T02:35:38.455Z,93.84
2023-02-25T02:36:38.304Z,93.84
2023-02-25T02:37:38.316Z,94.46
2023-02-25T02:38:38.289Z,93.43
2023-02-25T02:39:38.282Z,93.53
2023-02-25T02:40:38.262Z,93.43
2023-02-25T02:41:38.299Z,93.43
2023-02-25T02:42:38.255Z,93.12
2023-02-25T02:43:38.251Z,93.22
2023-02-25T02:44:38.251Z,93.12
2023-02-25T02:45:38.233Z,92.18
2023-02-25T02:46:38.286Z,92.90
2023-02-25T02:47:38.202Z,93.57
2023-02-25T02:48:38.177Z,93.32
2023-02-25T02:49:38.174Z,93.43
2023-02-25T02:50:38.145Z,93.01
2023-02-25T02:51:38.137Z,93.26
2023-02-25T02:52:38.155Z,93.26
2023-02-25T02:53:38.117Z,93.57
2023-02-25T02:54:38.108Z,93.68
2023-02-25T02:55:38.088Z,93.99
2023-02-25T02:56:38.101Z,93.47
2023-02-25T02:57:38.067Z,93.16
2023-02-25T02:58:38.057Z,93.32
2023-02-25T02:59:38.093Z,93.78
2023-02-25T03:00:38.051Z,93.43
2023-02-25T03:01:38.053Z,93.26
2023-02-25T03:02:38.040Z,93.32
2023-02-25T03:03:38.092Z,93.01
2023-02-25T03:04:37.999Z,93.32
2023-02-25T03:05:37.978Z,93.05
2023-02-25T03:06:37.985Z,93.43
2023-02-25T03:07:37.967Z,92.90
2023-02-25T03:08:37.978Z,92.28
2023-02-25T03:09:37.935Z,92.90
2023-02-25T03:10:37.953Z,92.90
2023-02-25T03:11:37.924Z,92.80
2023-02-25T03:12:37.922Z,92.84
2023-02-25T03:13:37.895Z,93.12
2023-02-25T03:14:37.897Z,92.28
2023-02-25T03:15:37.913Z,92.90
2023-02-25T03:16:37.933Z,92.49
2023-02-25T03:17:37.861Z,93.01
2023-02-25T03:18:39.270Z,92.49
2023-02-25T03:19:37.832Z,92.90
2023-02-25T03:20:37.819Z,92.69
2023-02-25T03:21:37.802Z,93.74
2023-02-25T03:22:37.825Z,93.32
2023-02-25T03:23:37.779Z,92.49
2023-02-25T03:24:37.783Z,92.28
2023-02-25T03:25:37.779Z,92.28
2023-02-25T03:26:37.746Z,93.12
2023-02-25T03:27:37.784Z,93.01
2023-02-25T03:28:37.742Z,92.80
2023-02-25T03:29:37.760Z,92.28
2023-02-25T03:30:37.787Z,92.38
2023-02-25T03:31:37.798Z,92.28
2023-02-25T03:32:37.751Z,92.80
2023-02-25T03:33:37.702Z,93.01
2023-02-25T03:34:37.725Z,93.22
2023-02-25T03:35:37.658Z,93.01
2023-02-25T03:36:37.646Z,93.01
2023-02-25T03:37:37.637Z,92.07
2023-02-25T03:38:37.634Z,92.28
2023-02-25T03:39:37.622Z,92.28
2023-02-25T03:40:37.605Z,92.90
2023-02-25T03:41:37.606Z,93.01
2023-02-25T03:42:37.571Z,93.43
2023-02-25T03:43:37.565Z,93.32
2023-02-25T03:44:37.564Z,93.22
2023-02-25T03:45:37.678Z,93.74
2023-02-25T03:46:37.561Z,93.88
2023-02-25T03:47:37.551Z,94.61
2023-02-25T03:48:37.548Z,94.30
2023-02-25T03:49:37.508Z,94.40
2023-02-25T03:50:37.502Z,94.96
2023-02-25T03:51:37.506Z,95.38
2023-02-25T03:52:37.465Z,95.07
2023-02-25T03:53:37.488Z,94.96
2023-02-25T03:54:37.472Z,96.00
2023-02-25T03:55:37.458Z,95.79
2023-02-25T03:56:37.414Z,96.31
2023-02-25T03:57:37.421Z,95.79
2023-02-25T03:58:37.418Z,95.48
2023-02-25T03:59:37.397Z,96.04
2023-02-25T04:00:37.371Z,96.31
2023-02-25T04:01:37.401Z,96.98
2023-02-25T04:02:37.389Z,96.73
2023-02-25T04:03:37.332Z,97.09
2023-02-25T04:04:37.383Z,97.30
2023-02-25T04:05:37.334Z,97.55
2023-02-25T04:06:37.370Z,97.75
2023-02-25T04:07:37.308Z,97.65
2023-02-25T04:08:37.288Z,97.65
2023-02-25T04:09:37.330Z,97.65
2023-02-25T04:10:37.265Z,98.27
2023-02-25T04:11:37.244Z,98.22
2023-02-25T04:12:37.274Z,97.86
2023-02-25T04:13:37.221Z,98.90
2023-02-25T04:14:37.211Z,98.80
2023-02-25T04:15:37.243Z,98.80
2023-02-25T04:16:37.226Z,98.69
2023-02-25T04:17:37.229Z,98.59
2023-02-25T04:18:37.176Z,98.69
2023-02-25T04:19:37.159Z,98.69
2023-02-25T04:20:37.173Z,98.69
2023-02-25T04:21:37.138Z,98.69
2023-02-25T04:22:37.141Z,98.27
2023-02-25T04:23:37.149Z,98.27
2023-02-25T04:24:37.098Z,98.32
2023-02-25T04:25:37.100Z,98.63
2023-02-25T04:26:37.089Z,98.74
2023-02-25T04:27:37.085Z,98.94
2023-02-25T04:28:37.082Z,98.94
2023-02-25T04:29:37.051Z,98.80
2023-02-25T04:30:37.086Z,99.26
2023-02-25T04:31:37.223Z,99.73
2023-02-25T04:32:37.102Z,99.01
2023-02-25T04:33:37.009Z,99.21
2023-02-25T04:34:36.986Z,99.32
2023-02-25T04:35:36.997Z,99.42
2023-02-25T04:36:36.999Z,99.32
2023-02-25T04:37:36.968Z,99.32
2023-02-25T04:38:36.987Z,99.42
2023-02-25T04:39:37.014Z,99.32
2023-02-25T04:40:36.932Z,99.52
2023-02-25T04:41:36.952Z,99.32
2023-02-25T04:42:36.923Z,99.42
2023-02-25T04:43:36.889Z,99.42
2023-02-25T04:44:36.885Z,99.42
2023-02-25T04:45:36.885Z,99.42
2023-02-25T04:46:36.977Z,99.73
2023-02-25T04:47:36.844Z,99.52
2023-02-25T04:48:36.852Z,99.11
2023-02-25T04:49:36.822Z,99.32
2023-02-25T04:50:36.846Z,99.01
2023-02-25T04:51:36.825Z,98.80
2023-02-25T04:52:36.794Z,98.80
2023-02-25T04:53:36.780Z,99.11
2023-02-25T04:54:36.798Z,99.01
2023-02-25T04:55:36.758Z,98.69
2023-02-25T04:56:36.765Z,98.59
2023-02-25T04:57:36.775Z,98.48
2023-02-25T04:58:36.727Z,98.80
2023-02-25T04:59:36.717Z,98.54
2023-02-25T05:00:36.702Z,98.75
2023-02-25T05:01:36.724Z,98.80
2023-02-25T05:02:36.713Z,98.80
2023-02-25T05:03:36.673Z,98.80
2023-02-25T05:04:36.741Z,98.65
2023-02-25T05:05:36.652Z,98.07
2023-02-25T05:06:36.649Z,97.96
2023-02-25T05:07:36.648Z,98.07
2023-02-25T05:08:36.648Z,98.07
2023-02-25T05:09:36.628Z,98.17
2023-02-25T05:10:36.636Z,98.07
2023-02-25T05:11:36.590Z,97.96
2023-02-25T05:12:36.605Z,98.07
2023-02-25T05:13:36.566Z,98.07
2023-02-25T05:14:36.570Z,98.07
2023-02-25T05:15:36.539Z,98.48
2023-02-25T05:16:36.610Z,97.96
2023-02-25T05:17:36.520Z,98.23
2023-02-25T05:18:36.669Z,97.86
2023-02-25T05:19:36.518Z,98.17
2023-02-25T05:20:36.542Z,98.02
2023-02-25T05:21:36.479Z,98.33
2023-02-25T05:22:36.472Z,98.33
2023-02-25T05:23:36.484Z,97.65
2023-02-25T05:24:36.467Z,97.40
2023-02-25T05:25:36.421Z,97.96
2023-02-25T05:26:36.462Z,97.71
2023-02-25T05:27:36.405Z,97.61
2023-02-25T05:28:36.394Z,97.40
2023-02-25T05:29:36.469Z,97.75
2023-02-25T05:30:36.386Z,97.55
2023-02-25T05:31:36.405Z,97.61
2023-02-25T05:32:36.562Z,97.65
2023-02-25T05:33:36.358Z,97.61
2023-02-25T05:34:36.375Z,97.61
2023-02-25T05:35:36.326Z,97.61
2023-02-25T05:36:36.300Z,97.61
2023-02-25T05:37:36.298Z,97.71
2023-02-25T05:38:36.318Z,97.40
2023-02-25T05:39:36.264Z,97.50
2023-02-25T05:40:36.266Z,97.40
2023-02-25T05:41:36.284Z,96.88
2023-02-25T05:42:36.293Z,96.88
2023-02-25T05:43:36.245Z,97.19
2023-02-25T05:44:36.227Z,96.98
2023-02-25T05:45:36.227Z,96.98
2023-02-25T05:46:36.236Z,96.98
2023-02-25T05:47:36.202Z,97.30
2023-02-25T05:48:36.177Z,97.09
2023-02-25T05:49:36.158Z,97.19
2023-02-25T05:50:36.160Z,96.57
2023-02-25T05:51:36.171Z,96.98
2023-02-25T05:52:36.156Z,96.88
2023-02-25T05:53:36.136Z,97.09
2023-02-25T05:54:36.111Z,96.15
2023-02-25T05:55:36.120Z,96.36
2023-02-25T05:56:36.084Z,96.36
2023-02-25T05:57:36.079Z,96.47
2023-02-25T05:58:36.155Z,96.25
2023-02-25T05:59:36.075Z,96.47
2023-02-25T06:00:36.029Z,96.36
2023-02-25T06:01:37.032Z,96.15
2023-02-25T06:02:36.015Z,96.25
2023-02-25T06:03:36.003Z,95.63
2023-02-25T06:04:36.891Z,96.00
2023-02-25T06:05:36.005Z,96.36
2023-02-25T06:06:35.973Z,96.15
2023-02-25T06:07:35.957Z,96.00
2023-02-25T06:08:35.940Z,96.11
2023-02-25T06:09:35.936Z,95.73
2023-02-25T06:10:35.946Z,96.04
2023-02-25T06:11:35.912Z,95.90
2023-02-25T06:12:35.900Z,95.90
2023-02-25T06:13:35.904Z,96.31
2023-02-25T06:14:35.941Z,95.90
2023-02-25T06:15:35.875Z,95.90
2023-02-25T06:16:35.919Z,95.73
2023-02-25T06:17:35.851Z,96.00
2023-02-25T06:18:35.856Z,96.25
2023-02-25T06:19:35.849Z,96.15
2023-02-25T06:20:35.828Z,96.25
2023-02-25T06:21:35.806Z,96.15
2023-02-25T06:22:35.781Z,96.57
2023-02-25T06:24:46.182Z,95.99
2023-02-25T06:25:46.083Z,96.30
2023-02-25T06:26:46.087Z,96.92
2023-02-25T06:27:46.063Z,97.03
2023-02-25T06:28:46.091Z,97.44
2023-02-25T06:29:46.074Z,97.28
2023-02-25T06:30:46.057Z,97.70
2023-02-25T06:31:46.279Z,97.80
2023-02-25T06:32:46.079Z,97.59
2023-02-25T06:33:45.996Z,97.59
2023-02-25T06:34:45.982Z,97.53
2023-02-25T06:35:46.037Z,98.36
2023-02-25T06:36:45.969Z,98.47
2023-02-25T06:37:45.953Z,98.05
2023-02-25T06:38:45.951Z,97.95
2023-02-25T06:39:45.932Z,98.05
2023-02-25T06:40:45.939Z,98.26
2023-02-25T06:41:46.031Z,98.88
2023-02-25T06:42:45.904Z,98.57
2023-02-25T06:43:45.907Z,98.47
2023-02-25T06:44:45.866Z,98.57
2023-02-25T06:45:45.932Z,98.57
2023-02-25T06:46:45.848Z,98.57
2023-02-25T06:47:45.848Z,98.47
2023-02-25T06:48:45.858Z,98.47
2023-02-25T06:49:45.862Z,98.57
2023-02-25T06:50:45.801Z,99.14
2023-02-25T06:51:45.794Z,98.83
2023-02-25T06:52:45.789Z,98.62
2023-02-25T06:53:45.962Z,98.62
2023-02-25T06:54:45.804Z,98.83
2023-02-25T06:56:57.710Z,98.93
2023-02-25T06:57:56.991Z,98.93
2023-02-25T06:58:57.050Z,98.31
2023-02-25T06:59:56.963Z,98.20
2023-02-25T07:00:57.052Z,98.16
2023-02-25T07:01:56.938Z,98.41
2023-02-25T07:02:56.955Z,98.16
2023-02-25T07:03:56.929Z,98.26
2023-02-25T07:04:56.938Z,99.10
2023-02-25T07:05:56.905Z,98.88
2023-02-25T07:06:56.881Z,98.88
2023-02-25T07:07:56.875Z,98.99
2023-02-25T07:08:56.894Z,97.85
2023-02-25T07:09:56.869Z,98.26
2023-02-25T07:10:56.864Z,98.36
2023-02-25T07:11:56.839Z,97.74
2023-02-25T07:12:56.809Z,97.89
2023-02-25T07:13:56.813Z,97.68
2023-02-25T07:14:56.792Z,97.78
2023-02-25T07:15:56.858Z,97.64
2023-02-25T07:16:56.805Z,97.74
2023-02-25T07:17:56.777Z,97.43
2023-02-25T07:18:56.748Z,97.22
2023-02-25T07:19:56.738Z,97.64
2023-02-25T07:20:56.751Z,97.01
2023-02-25T07:21:56.713Z,97.01
2023-02-25T07:22:56.702Z,97.33
2023-02-25T07:23:56.695Z,97.17
2023-02-25T07:24:56.704Z,96.55
2023-02-25T07:25:56.769Z,96.03
2023-02-25T07:26:56.679Z,96.14
2023-02-25T07:27:56.673Z,95.83
2023-02-25T07:28:56.640Z,95.57
2023-02-25T07:29:56.630Z,94.95
2023-02-25T07:30:56.723Z,94.43
2023-02-25T07:31:56.881Z,94.53
2023-02-25T07:32:56.653Z,94.32
2023-02-25T07:33:56.585Z,94.32
2023-02-25T07:34:56.590Z,94.01
2023-02-25T07:35:56.559Z,93.60
2023-02-25T07:36:56.548Z,93.49
2023-02-25T07:37:56.554Z,93.87
2023-02-25T07:38:56.527Z,93.55
2023-02-25T07:39:56.536Z,93.45
2023-02-25T07:40:56.498Z,93.14
2023-02-25T07:41:56.529Z,93.55
2023-02-25T07:42:56.481Z,93.55
2023-02-25T07:43:56.481Z,92.72
2023-02-25T07:44:56.483Z,93.14
2023-02-25T07:45:56.508Z,92.41
2023-02-25T07:46:56.441Z,92.82
2023-02-25T07:47:56.494Z,92.30
2023-02-25T07:48:56.433Z,93.14
2023-02-25T07:49:56.406Z,92.72
2023-02-25T07:50:56.407Z,92.72
2023-02-25T07:51:56.416Z,92.82
2023-02-25T07:52:56.372Z,92.72
2023-02-25T07:53:56.388Z,93.14
2023-02-25T07:54:56.353Z,92.36
2023-02-25T07:55:56.366Z,92.51
2023-02-25T07:56:56.336Z,93.03
2023-02-25T07:57:56.328Z,92.41
2023-02-25T07:58:56.312Z,93.03
2023-02-25T07:59:56.293Z,92.61
2023-02-25T08:00:56.317Z,92.61
2023-02-25T08:01:56.272Z,92.30
2023-02-25T08:02:56.309Z,92.20
2023-02-25T08:03:56.256Z,92.24
2023-02-25T08:04:56.259Z,91.99
2023-02-25T08:05:56.273Z,92.30
2023-02-25T08:06:56.229Z,92.72
2023-02-25T08:07:56.213Z,93.03
2023-02-25T08:08:56.234Z,93.20
2023-02-25T08:09:56.189Z,93.62
2023-02-25T08:10:56.221Z,93.72
2023-02-25T08:11:56.171Z,93.51
2023-02-25T08:12:56.152Z,93.72
2023-02-25T08:13:56.153Z,92.88
2023-02-25T08:14:56.123Z,93.41
2023-02-25T08:15:56.247Z,93.10
2023-02-25T08:16:56.102Z,91.95
2023-02-25T08:17:56.118Z,92.05
2023-02-25T08:18:56.097Z,91.85
2023-02-25T08:19:56.111Z,92.16
2023-02-25T08:20:56.088Z,91.53
2023-02-25T08:21:56.074Z,91.33
2023-02-25T08:22:56.052Z,90.66
2023-02-25T08:23:56.033Z,90.35
2023-02-25T08:24:56.028Z,90.87
2023-02-25T08:25:56.035Z,89.42
2023-02-25T08:26:55.996Z,90.04
2023-02-25T08:27:55.980Z,89.17
2023-02-25T08:28:55.973Z,88.75
2023-02-25T08:29:55.989Z,88.13
2023-02-25T08:30:56.119Z,87.92
2023-02-25T08:31:56.222Z,87.40
2023-02-25T08:32:55.993Z,87.61
2023-02-25T08:33:55.917Z,87.26
2023-02-25T08:34:55.913Z,86.26
2023-02-25T08:35:56.080Z,86.22
2023-02-25T08:36:55.934Z,86.33
2023-02-25T08:37:55.879Z,86.33
2023-02-25T08:38:55.862Z,86.91
2023-02-25T08:39:55.857Z,86.22
2023-02-25T08:40:55.864Z,85.39
2023-02-25T08:41:55.840Z,85.60
2023-02-25T08:42:55.822Z,84.56
2023-02-25T08:43:55.814Z,83.94
2023-02-25T08:44:55.789Z,84.25
2023-02-25T08:45:55.807Z,83.90
2023-02-25T08:46:55.857Z,84.11
2023-02-25T08:47:55.786Z,81.41
2023-02-25T08:48:55.767Z,83.34
2023-02-25T08:49:55.751Z,81.16
2023-02-25T08:50:55.732Z,80.44
2023-02-25T08:51:55.722Z,79.96
2023-02-25T08:52:55.728Z,80.02
2023-02-25T08:53:55.709Z,79.55
2023-02-25T08:54:55.697Z,79.85
2023-02-25T08:55:55.702Z,79.44
2023-02-25T08:56:55.668Z,79.75
2023-02-25T08:57:55.676Z,79.96
2023-02-25T08:58:55.636Z,79.44
2023-02-25T08:59:55.641Z,78.86
2023-02-25T09:00:55.638Z,79.48
2023-02-25T09:01:55.595Z,79.38
2023-02-25T09:02:55.594Z,79.72
2023-02-25T09:03:55.575Z,80.45
2023-02-25T09:04:55.688Z,80.14
2023-02-25T09:05:55.573Z,80.24
2023-02-25T09:06:55.546Z,79.86
2023-02-25T09:07:55.542Z,80.18
2023-02-25T09:08:55.544Z,80.80
2023-02-25T09:09:55.539Z,80.97
2023-02-25T09:10:55.517Z,82.73
2023-02-25T09:11:55.514Z,82.53
2023-02-25T09:12:55.469Z,82.15
2023-02-25T09:13:55.467Z,82.46
2023-02-25T09:14:55.472Z,83.81
2023-02-25T09:15:55.447Z,83.91
2023-02-25T09:16:55.474Z,82.87
2023-02-25T09:17:55.459Z,82.98
2023-02-25T09:18:55.406Z,83.60
2023-02-25T09:19:55.407Z,83.15
2023-02-25T09:20:55.388Z,83.77
2023-02-25T09:21:55.399Z,84.08
2023-02-25T09:22:57.310Z,84.12
2023-02-25T09:23:55.351Z,83.64
2023-02-25T09:24:55.360Z,83.95
2023-02-25T09:25:55.371Z,83.84
2023-02-25T09:26:55.323Z,84.22
2023-02-25T09:27:55.305Z,83.95
2023-02-25T09:28:55.296Z,85.41
2023-02-25T09:29:55.295Z,85.51
2023-02-25T09:30:55.295Z,85.61
2023-02-25T09:31:55.495Z,85.61
2023-02-25T09:32:55.409Z,85.41
2023-02-25T09:33:55.246Z,85.78
2023-02-25T09:34:55.226Z,86.19
2023-02-25T09:35:55.243Z,86.19
2023-02-25T09:36:55.220Z,85.99
2023-02-25T09:37:55.189Z,86.51
2023-02-25T09:38:55.180Z,85.88
2023-02-25T09:39:55.173Z,86.05
2023-02-25T09:40:55.181Z,86.88
2023-02-25T09:41:55.848Z,86.57
2023-02-25T09:42:55.148Z,87.37
2023-02-25T09:43:55.126Z,86.64
2023-02-25T09:44:55.124Z,86.43
2023-02-25T09:45:55.204Z,86.39
2023-02-25T09:46:55.097Z,86.45
2023-02-25T09:47:55.174Z,86.41
2023-02-25T09:48:55.072Z,85.79
2023-02-25T09:49:55.086Z,85.13
2023-02-25T09:50:55.099Z,84.47
2023-02-25T09:51:55.032Z,82.19
2023-02-25T09:52:55.036Z,82.46
2023-02-25T09:53:55.022Z,81.33
2023-02-25T09:54:55.007Z,82.05
2023-02-25T09:55:55.019Z,81.09
2023-02-25T09:56:55.004Z,79.47
2023-02-25T09:57:54.977Z,80.81
2023-02-25T09:58:54.960Z,82.39
2023-02-25T09:59:54.950Z,80.74
2023-02-25T10:00:55.649Z,81.81
2023-02-25T10:01:54.983Z,79.63
2023-02-25T10:02:55.130Z,77.60
2023-02-25T10:03:54.910Z,79.60
2023-02-25T10:04:54.902Z,79.50
2023-02-25T10:05:54.891Z,80.43
2023-02-25T10:06:54.878Z,81.37
2023-02-25T10:07:54.858Z,82.60
2023-02-25T10:08:54.898Z,81.99
2023-02-25T10:09:54.843Z,80.99
2023-02-25T10:10:54.842Z,80.99
2023-02-25T10:11:54.823Z,80.09
2023-02-25T10:12:54.830Z,79.61
2023-02-25T10:13:54.795Z,79.61
2023-02-25T10:14:54.804Z,80.13
2023-02-25T10:15:54.771Z,81.58
2023-02-25T10:16:54.798Z,80.96
2023-02-25T10:17:54.750Z,81.79
2023-02-25T10:18:54.749Z,81.68
2023-02-25T10:19:54.777Z,81.79
2023-02-25T10:20:54.751Z,80.58
2023-02-25T10:21:54.768Z,80.27
2023-02-25T10:22:54.693Z,80.27
2023-02-25T10:23:54.700Z,80.58
2023-02-25T10:24:54.829Z,80.89
2023-02-25T10:25:54.660Z,80.06
2023-02-25T10:26:54.651Z,80.58
2023-02-25T10:27:54.657Z,81.30
2023-02-25T10:28:54.680Z,80.47
2023-02-25T10:29:54.743Z,80.68
2023-02-25T10:30:54.794Z,82.14
2023-02-25T10:31:54.780Z,81.68
2023-02-25T10:32:54.639Z,80.27
2023-02-25T10:33:54.566Z,79.85
2023-02-25T10:34:54.570Z,80.54
2023-02-25T10:35:54.568Z,80.89
2023-02-25T10:36:54.535Z,80.65
2023-02-25T10:37:54.534Z,80.89
2023-02-25T10:38:54.550Z,81.20
2023-02-25T10:39:54.497Z,80.37
2023-02-25T10:40:54.544Z,80.93
2023-02-25T10:41:54.502Z,80.52
2023-02-25T10:42:54.472Z,80.93
2023-02-25T10:43:54.553Z,81.14
2023-02-25T10:44:54.469Z,81.80
2023-02-25T10:45:54.459Z,81.28
2023-02-25T10:46:54.454Z,81.80
2023-02-25T10:47:54.427Z,82.53
2023-02-25T10:48:54.414Z,84.19
2023-02-25T10:49:54.382Z,85.12
2023-02-25T10:50:54.372Z,85.53
2023-02-25T10:51:54.370Z,85.57
2023-02-25T10:52:54.379Z,85.51
2023-02-25T10:53:54.346Z,86.65
2023-02-25T10:54:54.353Z,87.94
2023-02-25T10:55:54.322Z,90.06
2023-02-25T10:56:54.315Z,91.20
2023-02-25T10:57:54.323Z,91.35
2023-02-25T10:58:54.280Z,91.56
2023-02-25T10:59:54.292Z,92.29
2023-02-25T11:00:54.333Z,92.70
2023-02-25T11:01:54.309Z,93.18
2023-02-25T11:02:54.339Z,92.97
2023-02-25T11:03:54.274Z,93.01
2023-02-25T11:04:54.222Z,93.95
2023-02-25T11:05:54.282Z,93.33
2023-02-25T11:06:54.198Z,93.70
2023-02-25T11:07:54.202Z,93.23
2023-02-25T11:08:54.175Z,93.80
2023-02-25T11:09:54.182Z,92.55
2023-02-25T11:10:54.223Z,92.03
2023-02-25T11:11:54.163Z,91.20
2023-02-25T11:12:54.140Z,90.69
2023-02-25T11:13:54.187Z,90.85
2023-02-25T11:14:54.118Z,90.33
2023-02-25T11:15:54.153Z,90.02
2023-02-25T11:16:54.124Z,88.87
2023-02-25T11:17:54.078Z,89.18
2023-02-25T11:18:54.059Z,89.18
2023-02-25T11:19:54.051Z,89.29
2023-02-25T11:20:54.150Z,87.15
2023-02-25T11:21:54.030Z,87.73
2023-02-25T11:22:54.016Z,88.46
2023-02-25T11:23:54.029Z,88.87
2023-02-25T11:24:53.997Z,89.08
2023-02-25T11:25:54.011Z,88.98
2023-02-25T11:26:53.971Z,89.04
2023-02-25T11:27:53.962Z,87.73
2023-02-25T11:28:53.951Z,88.52
2023-02-25T11:29:53.956Z,87.38
2023-02-25T11:30:54.083Z,87.24
2023-02-25T11:31:54.130Z,87.82
2023-02-25T11:32:54.080Z,85.91
2023-02-25T11:33:53.892Z,85.60
2023-02-25T11:34:53.911Z,84.31
2023-02-25T11:35:53.896Z,84.69
2023-02-25T11:36:53.882Z,83.93
2023-02-25T11:37:53.884Z,82.75
2023-02-25T11:38:53.839Z,82.54
2023-02-25T11:39:53.858Z,82.26
2023-02-25T11:40:53.996Z,82.53
2023-02-25T11:41:53.841Z,82.43
2023-02-25T11:42:53.813Z,78.85
2023-02-25T11:43:53.779Z,77.43
2023-02-25T11:44:53.764Z,79.30
2023-02-25T11:45:53.773Z,79.02
2023-02-25T11:46:53.754Z,78.92
2023-02-25T11:47:53.733Z,80.61
2023-02-25T11:48:53.753Z,79.78
2023-02-25T11:49:53.711Z,79.71
2023-02-25T11:50:53.732Z,79.71
2023-02-25T11:51:53.683Z,79.82
2023-02-25T11:52:53.675Z,80.23
2023-02-25T11:53:53.833Z,81.27
2023-02-25T11:54:53.661Z,80.68
2023-02-25T11:55:53.704Z,82.01
2023-02-25T11:56:53.668Z,83.77
2023-02-25T11:57:53.629Z,85.47
2023-02-25T11:58:53.646Z,86.03
2023-02-25T11:59:53.611Z,85.72
2023-02-25T12:00:53.606Z,86.27
2023-02-25T12:01:53.571Z,86.73
2023-02-25T12:02:53.726Z,87.71
2023-02-25T12:03:53.558Z,88.43
2023-02-25T12:04:53.583Z,88.23
2023-02-25T12:05:53.601Z,88.96
2023-02-25T12:06:53.519Z,90.10
2023-02-25T12:08:11.975Z,89.58
2023-02-25T12:08:54.523Z,89.17
2023-02-25T12:09:53.498Z,89.79
2023-02-25T12:10:53.487Z,90.10
2023-02-25T12:11:53.480Z,90.31
2023-02-25T12:12:53.457Z,89.79
2023-02-25T12:13:53.548Z,89.37
2023-02-25T12:14:53.458Z,89.06
2023-02-25T12:15:53.460Z,88.33
2023-02-25T12:16:53.413Z,87.88
2023-02-25T12:17:53.401Z,88.09
2023-02-25T12:18:53.410Z,88.60
2023-02-25T12:19:53.384Z,87.35
2023-02-25T12:20:53.390Z,86.94
2023-02-25T12:21:53.348Z,87.21
2023-02-25T12:22:53.358Z,87.63
2023-02-25T12:23:53.329Z,87.32
2023-02-25T12:24:53.347Z,86.69
2023-02-25T12:25:53.309Z,86.80
2023-02-25T12:26:53.311Z,87.17
2023-02-25T12:27:53.285Z,87.48
2023-02-25T12:28:53.297Z,87.38
2023-02-25T12:29:53.285Z,86.03
2023-02-25T12:30:53.288Z,85.61
2023-02-25T12:31:53.359Z,85.51
2023-02-25T12:32:53.280Z,85.99
2023-02-25T12:33:53.241Z,85.20
2023-02-25T12:34:53.240Z,85.41
2023-02-25T12:35:53.192Z,85.05
2023-02-25T12:36:53.214Z,83.95
2023-02-25T12:37:53.267Z,83.74
2023-02-25T12:38:53.173Z,84.68
2023-02-25T12:39:53.147Z,84.16
2023-02-25T12:40:53.145Z,84.27
2023-02-25T12:41:54.621Z,84.16
2023-02-25T12:42:53.290Z,83.53
2023-02-25T12:43:53.138Z,85.10
2023-02-25T12:44:53.110Z,83.33
2023-02-25T12:45:53.188Z,83.89
2023-02-25T12:46:53.122Z,84.09
2023-02-25T12:47:53.085Z,83.89
2023-02-25T12:48:53.082Z,85.03
2023-02-25T12:49:53.051Z,85.34
2023-02-25T12:50:53.052Z,84.82
2023-02-25T12:51:53.989Z,84.51
2023-02-25T12:52:53.037Z,83.92
2023-02-25T12:53:53.009Z,85.17
2023-02-25T12:54:53.004Z,85.75
2023-02-25T12:55:52.972Z,84.92